createdAt,value
2018-12-08T00:01:37.325Z,18.5
2018-12-08T00:02:26.704Z,18.3
2018-12-08T00:03:16.771Z,18.4
2018-12-08T00:04:07.028Z,18.9
2018-12-08T00:04:57.693Z,19.4
2018-12-08T00:05:47.206Z,19.9
2018-12-08T00:06:38.146Z,20.3
2018-12-08T00:24:49.724Z,22
2018-12-08T00:25:39.781Z,21.9
2018-12-08T00:26:30.434Z,21.4
2018-12-08T00:27:20.159Z,20.9
2018-12-08T00:28:09.439Z,20.6
2018-12-08T00:28:59.717Z,20.2
2018-12-08T00:29:50.604Z,20
2018-12-08T00:30:40.469Z,19.8
2018-12-08T00:31:30.694Z,19.6
2018-12-08T00:32:20.329Z,19.4
2018-12-08T00:33:09.706Z,19.3
2018-12-08T00:34:00.733Z,19.2
2018-12-08T00:34:50.955Z,19.1
2018-12-08T00:35:40.171Z,18.9
2018-12-08T00:36:29.954Z,18.9
2018-12-08T00:37:20.371Z,18.8
2018-12-08T00:38:10.071Z,18.6
2018-12-08T00:39:00.971Z,18.4
2018-12-08T00:39:51.350Z,18.3
2018-12-08T00:40:41.323Z,18.6
2018-12-08T00:41:30.557Z,19.1
2018-12-08T00:42:20.343Z,19.5
2018-12-08T00:43:10.443Z,19.9
2018-12-08T00:44:01.021Z,20.3
2018-12-08T00:44:50.520Z,20.6
2018-12-08T00:45:40.916Z,20.8
2018-12-08T00:46:31.278Z,20.9
2018-12-08T00:47:21.350Z,20.9
2018-12-08T00:48:10.763Z,21.1
2018-12-08T00:49:01.640Z,21.2
2018-12-08T00:49:49.849Z,21.3
2018-12-08T00:50:41.473Z,21.3
2018-12-08T00:51:31.787Z,21.4
2018-12-08T00:52:20.746Z,21.5
2018-12-08T00:53:11.203Z,21.5
2018-12-08T00:54:01.433Z,21.6
2018-12-08T00:54:51.820Z,21.6
2018-12-08T00:55:41.885Z,21.6
2018-12-08T00:56:31.637Z,21.6
2018-12-08T00:57:21.917Z,21.7
2018-12-08T00:58:12.110Z,21.7
2018-12-08T00:59:01.754Z,21.8
2018-12-08T00:59:52.167Z,21.8
2018-12-08T01:00:42.118Z,21.8
2018-12-08T01:01:30.837Z,21.8
2018-12-08T01:02:23.247Z,21.9
2018-12-08T01:03:12.369Z,21.9
2018-12-08T01:04:01.013Z,21.9
2018-12-08T01:04:52.467Z,21.9
2018-12-08T01:05:42.177Z,21.9
2018-12-08T01:06:31.748Z,21.9
2018-12-08T01:07:22.632Z,21.9
2018-12-08T01:08:12.156Z,21.9
2018-12-08T01:09:02.457Z,21.9
2018-12-08T01:09:53.099Z,21.8
2018-12-08T01:10:43.898Z,21.2
2018-12-08T01:11:32.366Z,20.8
2018-12-08T01:12:22.334Z,20.4
2018-12-08T01:13:13.561Z,20.2
2018-12-08T01:14:02.801Z,19.9
2018-12-08T01:14:52.923Z,19.7
2018-12-08T01:15:43.481Z,19.5
2018-12-08T01:16:33.049Z,19.4
2018-12-08T01:17:23.429Z,19.3
2018-12-08T01:18:12.843Z,19.1
2018-12-08T01:19:03.673Z,18.9
2018-12-08T01:19:54.089Z,18.9
2018-12-08T01:20:43.777Z,18.8
2018-12-08T01:21:33.920Z,18.6
2018-12-08T01:22:24.035Z,18.4
2018-12-08T01:23:13.976Z,18.3
2018-12-08T01:24:03.711Z,18.2
2018-12-08T01:24:52.818Z,18.6
2018-12-08T01:25:44.285Z,19.1
2018-12-08T01:26:34.781Z,19.5
2018-12-08T01:27:23.716Z,19.9
2018-12-08T01:28:14.375Z,20.3
2018-12-08T01:29:03.830Z,20.5
2018-12-08T01:29:53.337Z,20.6
2018-12-08T01:30:44.572Z,20.8
2018-12-08T01:31:33.030Z,20.9
2018-12-08T01:32:23.792Z,20.9
2018-12-08T01:33:15.222Z,21
2018-12-08T01:34:04.205Z,21.1
2018-12-08T01:34:54.346Z,21.2
2018-12-08T01:35:44.807Z,21.2
2018-12-08T01:36:34.229Z,21.3
2018-12-08T01:37:22.788Z,21.3
2018-12-08T01:38:14.296Z,21.3
2018-12-08T01:39:05.097Z,21.4
2018-12-08T01:39:54.546Z,21.4
2018-12-08T01:40:44.585Z,21.4
2018-12-08T01:41:36.050Z,21.4
2018-12-08T01:42:24.869Z,21.5
2018-12-08T01:43:15.038Z,21.5
2018-12-08T01:44:05.118Z,21.6
2018-12-08T01:44:55.445Z,21.6
2018-12-08T01:45:44.473Z,21.6
2018-12-08T01:46:35.256Z,21.6
2018-12-08T01:47:24.796Z,21.7
2018-12-08T01:48:14.663Z,21.7
2018-12-08T01:49:04.460Z,21.6
2018-12-08T01:49:54.732Z,21.7
2018-12-08T01:50:45.286Z,21.6
2018-12-08T01:51:35.410Z,21.6
2018-12-08T01:52:25.400Z,21.7
2018-12-08T01:53:15.470Z,21.4
2018-12-08T01:54:06.087Z,20.9
2018-12-08T01:54:55.950Z,19.9
2018-12-08T01:55:44.585Z,19.4
2018-12-08T01:56:36.048Z,18.8
2018-12-08T01:57:26.310Z,18.1
2018-12-08T01:58:16.090Z,17.3
2018-12-08T01:59:05.313Z,16.6
2018-12-08T01:59:55.901Z,16.4
2018-12-08T02:00:45.703Z,16.4
2018-12-08T02:01:36.131Z,17.2
2018-12-08T02:02:26.642Z,17.9
2018-12-08T02:03:16.428Z,18.6
2018-12-08T02:04:05.781Z,19.1
2018-12-08T02:04:57.076Z,19.6
2018-12-08T02:05:45.778Z,20
2018-12-08T02:06:38.004Z,20.3
2018-12-08T02:07:26.696Z,20.5
2018-12-08T02:08:16.032Z,20.6
2018-12-08T02:09:06.094Z,20.8
2018-12-08T02:09:56.511Z,20.9
2018-12-08T02:10:46.476Z,21
2018-12-08T02:12:27.036Z,21.3
2018-12-08T02:13:16.293Z,21.3
2018-12-08T02:14:07.266Z,21.3
2018-12-08T02:14:56.728Z,21.4
2018-12-08T02:15:45.723Z,21.5
2018-12-08T02:16:37.252Z,21.6
2018-12-08T02:17:26.621Z,21.6
2018-12-08T02:18:16.147Z,21.6
2018-12-08T02:19:06.770Z,21.7
2018-12-08T02:19:55.547Z,21.7
2018-12-08T02:20:46.990Z,21.8
2018-12-08T02:21:36.373Z,21.8
2018-12-08T02:22:27.107Z,21.8
2018-12-08T02:23:17.328Z,21.9
2018-12-08T02:24:07.184Z,21.9
2018-12-08T02:24:57.547Z,21.4
2018-12-08T02:25:46.493Z,20.9
2018-12-08T02:26:37.132Z,20.5
2018-12-08T02:27:27.347Z,20.2
2018-12-08T02:28:17.652Z,19.9
2018-12-08T02:29:07.239Z,19.8
2018-12-08T02:29:57.886Z,19.6
2018-12-08T02:30:47.579Z,19.4
2018-12-08T02:31:38.217Z,19.3
2018-12-08T02:32:28.337Z,19.1
2018-12-08T02:33:21.458Z,19
2018-12-08T02:34:08.416Z,18.9
2018-12-08T02:34:57.421Z,18.8
2018-12-08T02:36:38.462Z,18.5
2018-12-08T02:37:27.991Z,18.3
2018-12-08T02:38:17.626Z,18.3
2018-12-08T02:39:08.299Z,18.5
2018-12-08T02:39:58.256Z,19.1
2018-12-08T02:40:49.459Z,19.4
2018-12-08T02:41:38.899Z,19.9
2018-12-08T02:42:28.119Z,20.3
2018-12-08T02:43:19.267Z,20.6
2018-12-08T02:44:09.620Z,20.8
2018-12-08T02:44:59.051Z,20.9
2018-12-08T02:45:49.454Z,20.9
2018-12-08T02:46:38.228Z,21.1
2018-12-08T02:48:19.307Z,21.3
2018-12-08T02:49:09.740Z,21.3
2018-12-08T02:49:59.110Z,21.4
2018-12-08T02:50:49.182Z,21.4
2018-12-08T02:51:39.746Z,21.5
2018-12-08T02:52:30.143Z,21.5
2018-12-08T02:53:19.702Z,21.5
2018-12-08T02:54:10.201Z,21.6
2018-12-08T02:54:59.804Z,21.6
2018-12-08T02:55:50.066Z,21.6
2018-12-08T02:56:40.039Z,21.6
2018-12-08T02:57:29.637Z,21.6
2018-12-08T02:58:20.609Z,21.7
2018-12-08T02:59:09.578Z,21.8
2018-12-08T03:00:00.439Z,21.8
2018-12-08T03:00:49.884Z,21.8
2018-12-08T03:01:39.969Z,21.8
2018-12-08T03:02:29.426Z,21.8
2018-12-08T03:03:20.348Z,21.9
2018-12-08T03:04:11.173Z,21.9
2018-12-08T03:05:00.763Z,21.9
2018-12-08T03:05:50.624Z,21.8
2018-12-08T03:06:39.786Z,21.2
2018-12-08T03:07:29.963Z,20.8
2018-12-08T03:08:20.267Z,20.4
2018-12-08T03:09:11.996Z,20.1
2018-12-08T03:10:00.209Z,19.9
2018-12-08T03:10:50.377Z,19.7
2018-12-08T03:11:40.917Z,19.4
2018-12-08T03:12:30.789Z,19.3
2018-12-08T03:13:21.578Z,19.1
2018-12-08T03:14:10.543Z,19
2018-12-08T03:15:01.134Z,18.9
2018-12-08T03:15:50.724Z,18.8
2018-12-08T03:16:41.319Z,18.6
2018-12-08T03:17:31.797Z,18.4
2018-12-08T03:18:21.566Z,18.3
2018-12-08T03:19:11.974Z,18.1
2018-12-08T03:20:01.703Z,18.2
2018-12-08T03:20:51.599Z,18.8
2018-12-08T03:21:41.838Z,19.2
2018-12-08T03:22:32.424Z,19.6
2018-12-08T03:23:22.083Z,20.1
2018-12-08T03:24:12.016Z,20.4
2018-12-08T03:25:01.791Z,20.6
2018-12-08T03:25:52.703Z,20.8
2018-12-08T03:26:42.141Z,20.8
2018-12-08T03:27:32.788Z,20.9
2018-12-08T03:28:22.580Z,21
2018-12-08T03:29:11.578Z,21.1
2018-12-08T03:30:54.126Z,21.2
2018-12-08T03:31:42.670Z,21.3
2018-12-08T03:32:32.030Z,21.3
2018-12-08T03:33:22.838Z,21.4
2018-12-08T03:34:13.130Z,21.4
2018-12-08T03:35:02.270Z,21.4
2018-12-08T03:35:52.539Z,21.5
2018-12-08T03:36:42.106Z,21.5
2018-12-08T03:37:32.391Z,21.6
2018-12-08T03:38:23.011Z,21.6
2018-12-08T03:39:13.332Z,21.6
2018-12-08T03:40:03.457Z,21.6
2018-12-08T03:40:53.752Z,21.7
2018-12-08T03:41:42.687Z,21.7
2018-12-08T03:42:31.900Z,21.7
2018-12-08T03:43:22.568Z,21.7
2018-12-08T03:44:13.490Z,21.7
2018-12-08T03:45:03.009Z,21.8
2018-12-08T03:45:53.494Z,21.8
2018-12-08T03:46:43.307Z,21.8
2018-12-08T03:47:32.812Z,21.8
2018-12-08T03:48:23.163Z,21.8
2018-12-08T03:49:14.060Z,21.8
2018-12-08T03:50:03.378Z,21.8
2018-12-08T03:50:54.278Z,21.9
2018-12-08T03:51:44.147Z,21.4
2018-12-08T03:52:34.331Z,20.9
2018-12-08T03:53:23.799Z,20.5
2018-12-08T03:54:13.895Z,20.2
2018-12-08T03:55:03.383Z,19.9
2018-12-08T03:55:53.736Z,19.7
2018-12-08T03:56:43.259Z,19.5
2018-12-08T03:57:34.260Z,19.3
2018-12-08T03:58:23.339Z,19.1
2018-12-08T03:59:14.719Z,19.1
2018-12-08T04:00:04.805Z,18.9
2018-12-08T04:00:53.846Z,18.9
2018-12-08T04:02:34.814Z,18.6
2018-12-08T04:03:23.859Z,18.3
2018-12-08T04:04:15.049Z,18.2
2018-12-08T04:05:04.568Z,18.1
2018-12-08T04:05:54.680Z,18.1
2018-12-08T04:07:35.332Z,19.1
2018-12-08T04:08:24.770Z,19.6
2018-12-08T04:09:15.394Z,19.9
2018-12-08T04:10:06.765Z,20.3
2018-12-08T04:10:55.466Z,20.6
2018-12-08T04:11:45.573Z,20.7
2018-12-08T04:12:35.303Z,20.8
2018-12-08T04:13:25.122Z,20.8
2018-12-08T04:14:14.365Z,20.9
2018-12-08T04:15:05.750Z,21
2018-12-08T04:15:54.977Z,21.1
2018-12-08T04:18:25.785Z,21.3
2018-12-08T04:19:15.463Z,21.3
2018-12-08T04:20:05.426Z,21.3
2018-12-08T04:20:55.993Z,21.3
2018-12-08T04:21:45.936Z,21.4
2018-12-08T04:22:36.304Z,21.4
2018-12-08T04:23:25.867Z,21.4
2018-12-08T04:24:16.689Z,21.4
2018-12-08T04:25:06.412Z,21.4
2018-12-08T04:25:56.710Z,21.3
2018-12-08T04:26:45.744Z,20.8
2018-12-08T04:27:35.232Z,19.9
2018-12-08T04:28:26.356Z,19.3
2018-12-08T04:30:06.574Z,18
2018-12-08T04:30:57.521Z,17.3
2018-12-08T04:31:47.514Z,16.4
2018-12-08T04:32:36.193Z,16.1
2018-12-08T04:33:26.788Z,16.3
2018-12-08T04:34:16.311Z,16.8
2018-12-08T04:35:06.743Z,17.6
2018-12-08T04:35:58.594Z,18.3
2018-12-08T04:36:45.825Z,18.8
2018-12-08T04:54:05.766Z,21.7
2018-12-08T04:54:55.639Z,21.8
2018-12-08T04:55:44.835Z,21.8
2018-12-08T04:56:34.941Z,21.8
2018-12-08T04:57:24.995Z,21.8
2018-12-08T04:58:15.287Z,21.8
2018-12-08T04:59:05.604Z,21.9
2018-12-08T04:59:55.381Z,21.4
2018-12-08T05:00:45.724Z,20.9
2018-12-08T05:01:35.803Z,20.5
2018-12-08T05:02:26.243Z,20.1
2018-12-08T05:03:15.051Z,19.9
2018-12-08T05:04:05.307Z,19.7
2018-12-08T05:04:55.783Z,19.5
2018-12-08T05:05:45.771Z,19.3
2018-12-08T05:06:35.833Z,19.2
2018-12-08T05:07:26.683Z,19.1
2018-12-08T05:08:16.484Z,18.9
2018-12-08T05:09:05.503Z,18.8
2018-12-08T05:09:56.490Z,18.8
2018-12-08T05:10:46.389Z,18.6
2018-12-08T05:11:36.536Z,18.4
2018-12-08T05:12:26.743Z,18.3
2018-12-08T05:13:16.256Z,18.1
2018-12-08T05:14:06.324Z,18.4
2018-12-08T05:14:56.963Z,18.9
2018-12-08T05:15:46.245Z,19.3
2018-12-08T05:16:37.053Z,19.8
2018-12-08T05:17:25.718Z,20.2
2018-12-08T05:18:16.321Z,20.4
2018-12-08T05:19:07.478Z,20.6
2018-12-08T05:19:57.010Z,20.7
2018-12-08T05:20:47.648Z,20.8
2018-12-08T05:21:37.110Z,20.9
2018-12-08T05:22:27.458Z,20.9
2018-12-08T05:23:17.055Z,21.1
2018-12-08T05:24:06.695Z,21.1
2018-12-08T05:24:56.911Z,21.2
2018-12-08T05:25:47.888Z,21.3
2018-12-08T05:26:37.581Z,21.3
2018-12-08T05:27:27.263Z,21.4
2018-12-08T05:28:17.015Z,21.4
2018-12-08T05:29:07.362Z,21.4
2018-12-08T05:29:57.223Z,21.4
2018-12-08T05:30:47.803Z,21.5
2018-12-08T05:31:37.535Z,21.5
2018-12-08T05:32:27.970Z,21.6
2018-12-08T05:33:17.355Z,21.6
2018-12-08T05:34:07.990Z,21.6
2018-12-08T05:34:57.811Z,21.6
2018-12-08T05:35:47.582Z,21.7
2018-12-08T05:36:38.763Z,21.7
2018-12-08T05:37:28.053Z,21.7
2018-12-08T05:38:17.480Z,21.7
2018-12-08T05:39:07.931Z,21.7
2018-12-08T05:39:58.272Z,21.7
2018-12-08T05:40:48.240Z,21.8
2018-12-08T05:41:37.700Z,21.8
2018-12-08T05:42:28.145Z,21.8
2018-12-08T05:43:18.137Z,21.8
2018-12-08T05:44:08.547Z,21.8
2018-12-08T05:44:58.234Z,21.8
2018-12-08T05:45:48.024Z,21.3
2018-12-08T05:46:38.404Z,20.8
2018-12-08T05:47:28.677Z,20.4
2018-12-08T05:48:18.671Z,20.1
2018-12-08T05:49:09.139Z,19.8
2018-12-08T05:49:58.764Z,19.6
2018-12-08T05:50:48.940Z,19.4
2018-12-08T05:51:39.603Z,19.3
2018-12-08T05:52:29.262Z,19.1
2018-12-08T05:53:19.825Z,18.9
2018-12-08T05:54:09.072Z,18.8
2018-12-08T05:55:49.444Z,18.6
2018-12-08T05:56:39.312Z,18.5
2018-12-08T05:57:29.379Z,18.3
2018-12-08T05:58:19.309Z,18.2
2018-12-08T05:59:08.867Z,18.1
2018-12-08T05:59:59.732Z,18.3
2018-12-08T06:00:49.236Z,18.9
2018-12-08T06:01:40.971Z,19.3
2018-12-08T06:02:29.621Z,20
2018-12-08T06:03:20.494Z,20.1
2018-12-08T06:04:09.485Z,20.3
2018-12-08T06:04:59.540Z,20.4
2018-12-08T06:05:49.846Z,20.6
2018-12-08T06:06:40.690Z,20.7
2018-12-08T06:07:29.683Z,20.8
2018-12-08T06:08:20.016Z,20.9
2018-12-08T06:09:10.364Z,21
2018-12-08T06:10:00.398Z,21.1
2018-12-08T06:11:41.466Z,21.2
2018-12-08T06:12:30.598Z,21.3
2018-12-08T06:13:20.358Z,21.3
2018-12-08T06:14:10.696Z,21.4
2018-12-08T06:15:01.056Z,21.4
2018-12-08T06:15:50.261Z,21.4
2018-12-08T06:16:41.165Z,21.4
2018-12-08T06:17:30.940Z,21.4
2018-12-08T06:18:21.541Z,21.5
2018-12-08T06:19:10.193Z,21.6
2018-12-08T06:20:00.653Z,21.6
2018-12-08T06:20:50.873Z,21.6
2018-12-08T06:21:41.538Z,21.6
2018-12-08T06:22:31.143Z,21.6
2018-12-08T06:23:21.033Z,21.7
2018-12-08T06:24:10.290Z,21.7
2018-12-08T06:25:01.549Z,21.8
2018-12-08T06:25:51.762Z,21.8
2018-12-08T06:26:41.707Z,21.8
2018-12-08T06:27:32.437Z,21.8
2018-12-08T06:28:21.392Z,21.8
2018-12-08T06:29:11.157Z,21.8
2018-12-08T06:30:01.189Z,21.9
2018-12-08T06:30:51.947Z,21.8
2018-12-08T06:31:41.440Z,21.9
2018-12-08T06:32:32.187Z,21.9
2018-12-08T06:33:21.195Z,21.6
2018-12-08T06:34:11.765Z,21.1
2018-12-08T06:35:01.779Z,20.6
2018-12-08T06:35:52.434Z,20.3
2018-12-08T06:36:42.597Z,20
2018-12-08T06:37:31.717Z,19.8
2018-12-08T06:38:22.114Z,19.6
2018-12-08T06:39:12.344Z,19.4
2018-12-08T06:40:03.229Z,19.2
2018-12-08T06:40:52.484Z,19.1
2018-12-08T06:41:41.194Z,18.9
2018-12-08T06:42:32.594Z,18.9
2018-12-08T06:43:21.887Z,18.8
2018-12-08T06:44:12.201Z,18.6
2018-12-08T06:45:03.118Z,18.6
2018-12-08T06:45:52.341Z,18.9
2018-12-08T06:46:43.239Z,19.3
2018-12-08T06:47:32.397Z,19.6
2018-12-08T06:48:22.523Z,19.9
2018-12-08T06:49:12.643Z,20.3
2018-12-08T06:50:02.834Z,20.5
2018-12-08T06:50:52.177Z,20.6
2018-12-08T06:51:43.819Z,20.7
2018-12-08T06:52:32.869Z,20.8
2018-12-08T06:53:23.211Z,20.9
2018-12-08T06:54:13.421Z,20.9
2018-12-08T06:55:03.753Z,20.6
2018-12-08T06:55:52.979Z,20.1
2018-12-08T06:56:42.876Z,19.3
2018-12-08T06:58:23.756Z,18.1
2018-12-08T06:59:13.957Z,17.3
2018-12-08T07:00:03.306Z,16.6
2018-12-08T07:00:52.943Z,16
2018-12-08T07:01:44.064Z,16.1
2018-12-08T07:02:32.958Z,16.3
2018-12-08T07:03:24.130Z,16.6
2018-12-08T07:04:13.903Z,16.2
2018-12-08T07:05:03.648Z,16.8
2018-12-08T07:05:53.710Z,17.5
2018-12-08T07:06:44.107Z,18.3
2018-12-08T07:07:34.055Z,18.8
2018-12-08T07:08:24.764Z,19.3
2018-12-08T07:09:14.408Z,19.8
2018-12-08T07:10:04.063Z,20
2018-12-08T07:10:54.886Z,20.2
2018-12-08T07:11:44.430Z,20.4
2018-12-08T07:12:37.296Z,20.5
2018-12-08T07:13:23.567Z,20.6
2018-12-08T07:14:15.035Z,20.8
2018-12-08T07:15:05.127Z,20.8
2018-12-08T07:15:55.200Z,20.9
2018-12-08T07:16:44.516Z,21
2018-12-08T07:17:33.970Z,21.1
2018-12-08T07:18:27.333Z,21.2
2018-12-08T07:19:14.892Z,21.3
2018-12-08T07:20:05.027Z,21.3
2018-12-08T07:20:54.407Z,21.4
2018-12-08T07:21:45.307Z,21.4
2018-12-08T07:22:35.315Z,21.4
2018-12-08T07:23:25.964Z,21.5
2018-12-08T07:24:14.879Z,21.6
2018-12-08T07:25:05.229Z,21.6
2018-12-08T07:25:56.204Z,21.6
2018-12-08T07:26:45.196Z,21.7
2018-12-08T07:27:35.141Z,21.8
2018-12-08T07:28:28.004Z,21.3
2018-12-08T07:29:16.324Z,20.8
2018-12-08T07:30:05.691Z,20.4
2018-12-08T07:30:56.411Z,20.1
2018-12-08T07:31:46.561Z,19.8
2018-12-08T07:32:44.066Z,19.6
2018-12-08T07:33:25.484Z,19.3
2018-12-08T07:34:15.593Z,19.2
2018-12-08T07:35:05.951Z,19.1
2018-12-08T07:35:55.718Z,18.9
2018-12-08T07:36:46.068Z,18.8
2018-12-08T07:39:16.150Z,18.5
2018-12-08T07:40:06.278Z,18.3
2018-12-08T07:40:56.043Z,18.2
2018-12-08T07:41:46.695Z,18
2018-12-08T07:42:35.862Z,17.9
2018-12-08T07:43:25.950Z,17.8
2018-12-08T07:44:17.363Z,17.6
2018-12-08T07:45:06.876Z,17.5
2018-12-08T07:45:56.950Z,17.4
2018-12-08T07:46:46.973Z,17.5
2018-12-08T07:47:37.130Z,18.2
2018-12-08T07:48:26.528Z,18.8
2018-12-08T07:49:16.408Z,19.3
2018-12-08T07:50:06.457Z,19.8
2018-12-08T07:50:56.515Z,20.3
2018-12-08T07:51:46.821Z,20.5
2018-12-08T07:52:36.647Z,20.7
2018-12-08T07:53:27.785Z,20.8
2018-12-08T07:54:16.489Z,20.9
2018-12-08T07:55:07.352Z,21
2018-12-08T07:55:56.941Z,21.1
2018-12-08T07:56:47.974Z,21.2
2018-12-08T07:57:36.909Z,21.3
2018-12-08T07:58:27.233Z,21.3
2018-12-08T07:59:17.024Z,21.4
2018-12-08T08:00:09.908Z,21.5
2018-12-08T08:00:58.057Z,21.6
2018-12-08T08:01:49.348Z,21.6
2018-12-08T08:02:37.621Z,21.6
2018-12-08T08:03:26.737Z,21.7
2018-12-08T08:04:17.319Z,21.8
2018-12-08T08:05:09.412Z,21.8
2018-12-08T08:05:58.966Z,21.8
2018-12-08T08:06:48.646Z,21.9
2018-12-08T08:07:38.403Z,22
2018-12-08T08:08:28.451Z,22
2018-12-08T08:09:18.296Z,22.1
2018-12-08T08:10:07.072Z,22
2018-12-08T08:10:59.263Z,21.4
2018-12-08T08:11:49.253Z,20.9
2018-12-08T08:12:39.038Z,20.5
2018-12-08T08:13:28.521Z,20.2
2018-12-08T08:14:18.913Z,19.9
2018-12-08T08:15:08.755Z,19.7
2018-12-08T08:15:58.230Z,19.5
2018-12-08T08:16:49.038Z,19.3
2018-12-08T08:17:39.623Z,19.2
2018-12-08T08:18:29.401Z,19.1
2018-12-08T08:19:19.452Z,18.9
2018-12-08T08:20:08.802Z,18.9
2018-12-08T08:20:59.442Z,18.8
2018-12-08T08:21:49.375Z,18.5
2018-12-08T08:22:39.968Z,18.4
2018-12-08T08:23:29.790Z,18.2
2018-12-08T08:24:18.839Z,18
2018-12-08T08:25:09.577Z,17.9
2018-12-08T08:25:58.921Z,17.8
2018-12-08T08:26:49.543Z,17.7
2018-12-08T08:27:39.674Z,17.6
2018-12-08T08:28:29.707Z,17.5
2018-12-08T08:29:19.597Z,17.7
2018-12-08T08:30:09.657Z,18.4
2018-12-08T08:30:59.454Z,19
2018-12-08T08:31:51.862Z,19.5
2018-12-08T08:32:39.274Z,19.9
2018-12-08T08:33:30.485Z,20.3
2018-12-08T08:34:19.981Z,20.7
2018-12-08T08:35:10.133Z,20.8
2018-12-08T08:35:59.857Z,20.9
2018-12-08T08:36:50.094Z,21.1
2018-12-08T08:37:40.524Z,21.2
2018-12-08T08:38:30.619Z,21.2
2018-12-08T08:39:19.516Z,21.3
2018-12-08T08:40:11.007Z,21.4
2018-12-08T08:41:00.389Z,21.5
2018-12-08T08:41:49.623Z,21.6
2018-12-08T08:42:40.492Z,21.6
2018-12-08T08:43:30.271Z,21.7
2018-12-08T08:44:21.162Z,21.6
2018-12-08T08:45:10.151Z,21.8
2018-12-08T08:46:00.814Z,21.8
2018-12-08T08:46:50.561Z,21.9
2018-12-08T08:47:41.201Z,21.9
2018-12-08T08:48:31.511Z,21.9
2018-12-08T08:49:21.236Z,22
2018-12-08T08:50:13.383Z,22.1
2018-12-08T08:51:01.342Z,22.1
2018-12-08T08:51:50.878Z,22.1
2018-12-08T08:52:41.210Z,22.1
2018-12-08T09:08:28.300Z,18
2018-12-08T09:09:18.814Z,17.9
2018-12-08T09:10:08.169Z,17.8
2018-12-08T09:10:57.797Z,17.6
2018-12-08T09:11:48.427Z,17.6
2018-12-08T09:12:37.359Z,17.8
2018-12-08T09:13:28.769Z,18.5
2018-12-08T09:14:22.487Z,19.1
2018-12-08T09:15:08.102Z,19.7
2018-12-08T09:15:58.757Z,20.1
2018-12-08T09:16:49.149Z,20.5
2018-12-08T09:17:38.936Z,20.8
2018-12-08T09:18:29.299Z,20.9
2018-12-08T09:19:18.924Z,21
2018-12-08T09:20:58.777Z,21.2
2018-12-08T09:21:48.539Z,21.3
2018-12-08T09:22:37.826Z,21.4
2018-12-08T09:23:29.299Z,21.4
2018-12-08T09:24:19.252Z,21.6
2018-12-08T09:25:09.342Z,21.6
2018-12-08T09:25:59.639Z,21.6
2018-12-08T09:26:49.441Z,21.8
2018-12-08T09:27:39.477Z,21.8
2018-12-08T09:28:30.356Z,21.8
2018-12-08T09:29:19.050Z,21.9
2018-12-08T09:30:09.233Z,21.9
2018-12-08T09:30:58.204Z,21.9
2018-12-08T09:31:49.101Z,22
2018-12-08T09:32:38.806Z,22
2018-12-08T09:33:29.839Z,22.1
2018-12-08T09:34:19.569Z,22.1
2018-12-08T09:35:09.545Z,22.1
2018-12-08T09:36:00.336Z,22.2
2018-12-08T09:36:50.207Z,22.2
2018-12-08T09:37:39.490Z,21.7
2018-12-08T09:38:30.088Z,21.2
2018-12-08T09:39:20.262Z,20.8
2018-12-08T09:40:09.815Z,20.4
2018-12-08T09:41:00.251Z,20.1
2018-12-08T09:41:50.731Z,19.9
2018-12-08T09:42:39.780Z,19.7
2018-12-08T09:43:30.586Z,19.5
2018-12-08T09:44:20.380Z,19.4
2018-12-08T09:45:10.163Z,19.3
2018-12-08T09:46:01.300Z,19.1
2018-12-08T09:46:50.050Z,19
2018-12-08T09:47:40.600Z,19
2018-12-08T09:48:30.370Z,18.8
2018-12-08T09:49:21.050Z,18.6
2018-12-08T09:50:11.376Z,18.4
2018-12-08T09:51:01.627Z,18.3
2018-12-08T09:51:50.053Z,18.1
2018-12-08T09:52:40.210Z,18
2018-12-08T09:53:31.265Z,17.9
2018-12-08T09:54:21.601Z,17.8
2018-12-08T09:55:11.772Z,17.6
2018-12-08T09:56:02.336Z,17.7
2018-12-08T09:56:51.247Z,18.4
2018-12-08T09:57:41.275Z,18.9
2018-12-08T09:58:31.475Z,19.5
2018-12-08T09:59:21.925Z,19.9
2018-12-08T10:00:11.746Z,20.3
2018-12-08T10:01:01.874Z,20.7
2018-12-08T10:01:52.104Z,20.8
2018-12-08T10:02:41.669Z,20.9
2018-12-08T10:03:30.898Z,20.4
2018-12-08T10:04:21.002Z,19.8
2018-12-08T10:05:11.199Z,19.1
2018-12-08T10:06:02.279Z,18.5
2018-12-08T10:06:51.525Z,17.8
2018-12-08T10:07:42.237Z,17.1
2018-12-08T10:08:32.087Z,16.3
2018-12-08T10:09:22.869Z,16.1
2018-12-08T10:10:12.091Z,16.2
2018-12-08T10:11:02.438Z,16.9
2018-12-08T10:11:52.220Z,17.8
2018-12-08T10:12:42.297Z,18.4
2018-12-08T10:13:31.956Z,19
2018-12-08T10:14:23.051Z,19.6
2018-12-08T10:15:12.267Z,20.1
2018-12-08T10:16:03.119Z,20.5
2018-12-08T10:16:53.152Z,20.7
2018-12-08T10:17:43.171Z,20.9
2018-12-08T10:18:33.024Z,21
2018-12-08T10:19:23.101Z,21.1
2018-12-08T10:20:12.805Z,21.2
2018-12-08T10:21:02.929Z,21.4
2018-12-08T10:21:52.860Z,21.4
2018-12-08T10:22:43.540Z,21.5
2018-12-08T10:23:33.084Z,21.6
2018-12-08T10:24:23.119Z,21.7
2018-12-08T10:25:13.608Z,21.8
2018-12-08T10:26:03.738Z,21.8
2018-12-08T10:26:53.316Z,21.9
2018-12-08T10:27:45.335Z,22
2018-12-08T10:28:33.658Z,22.1
2018-12-08T10:29:22.316Z,22.1
2018-12-08T10:30:13.651Z,22.1
2018-12-08T10:31:02.971Z,22.1
2018-12-08T10:31:53.830Z,22.2
2018-12-08T10:32:43.633Z,22.3
2018-12-08T10:33:36.231Z,22.3
2018-12-08T10:34:24.383Z,22.3
2018-12-08T10:35:14.087Z,21.7
2018-12-08T10:36:03.883Z,21.2
2018-12-08T10:36:54.489Z,20.8
2018-12-08T10:37:44.265Z,20.4
2018-12-08T10:38:34.600Z,20.2
2018-12-08T10:39:24.421Z,19.9
2018-12-08T10:40:14.760Z,19.8
2018-12-08T10:41:04.815Z,19.6
2018-12-08T10:41:54.551Z,19.4
2018-12-08T10:42:44.590Z,19.3
2018-12-08T10:43:34.367Z,19.2
2018-12-08T10:44:23.877Z,19.1
2018-12-08T10:45:14.605Z,19
2018-12-08T10:46:04.822Z,18.8
2018-12-08T10:46:54.952Z,18.6
2018-12-08T10:47:44.767Z,18.4
2018-12-08T10:48:34.365Z,18.3
2018-12-08T10:49:24.406Z,18.1
2018-12-08T10:50:15.285Z,17.9
2018-12-08T10:51:05.153Z,17.9
2018-12-08T10:51:55.329Z,17.8
2018-12-08T10:52:45.041Z,17.7
2018-12-08T10:53:35.594Z,18.1
2018-12-08T10:54:26.332Z,18.8
2018-12-08T10:55:15.053Z,19.4
2018-12-08T10:56:05.566Z,19.9
2018-12-08T10:56:55.279Z,20.4
2018-12-08T10:57:45.951Z,20.8
2018-12-08T10:58:34.852Z,20.9
2018-12-08T10:59:25.726Z,21.1
2018-12-08T11:00:16.186Z,21.3
2018-12-08T11:01:06.703Z,21.3
2018-12-08T11:01:56.283Z,21.4
2018-12-08T11:02:46.478Z,21.5
2018-12-08T11:03:35.993Z,21.6
2018-12-08T11:04:26.595Z,21.7
2018-12-08T11:05:15.614Z,21.8
2018-12-08T11:06:06.398Z,21.9
2018-12-08T11:06:55.719Z,21.9
2018-12-08T11:07:45.445Z,22
2018-12-08T11:08:36.130Z,22.1
2018-12-08T11:09:25.904Z,22.1
2018-12-08T11:10:16.045Z,22.2
2018-12-08T11:11:07.165Z,22.3
2018-12-08T11:11:55.540Z,22.3
2018-12-08T11:12:46.472Z,22.3
2018-12-08T11:13:35.215Z,22.4
2018-12-08T11:14:26.274Z,22.1
2018-12-08T11:15:16.324Z,21.5
2018-12-08T11:16:06.936Z,21
2018-12-08T11:16:56.786Z,20.6
2018-12-08T11:17:46.594Z,20.3
2018-12-08T11:18:36.631Z,20.1
2018-12-08T11:19:25.775Z,19.9
2018-12-08T11:20:16.301Z,19.7
2018-12-08T11:21:07.265Z,19.6
2018-12-08T11:21:56.763Z,19.4
2018-12-08T11:22:46.792Z,19.3
2018-12-08T11:23:38.925Z,19.1
2018-12-08T11:24:26.695Z,19.1
2018-12-08T11:25:16.975Z,18.9
2018-12-08T11:26:07.552Z,18.6
2018-12-08T11:26:58.180Z,18.4
2018-12-08T11:27:47.089Z,18.3
2018-12-08T11:28:37.979Z,18.1
2018-12-08T11:29:27.594Z,18
2018-12-08T11:30:18.111Z,17.9
2018-12-08T11:31:07.266Z,17.8
2018-12-08T11:31:58.266Z,17.7
2018-12-08T11:32:47.998Z,17.8
2018-12-08T11:33:38.386Z,18.4
2018-12-08T11:34:28.362Z,19.1
2018-12-08T11:35:17.866Z,19.6
2018-12-08T11:36:07.846Z,20.1
2018-12-08T11:36:59.344Z,20.6
2018-12-08T11:37:48.611Z,20.8
2018-12-08T11:38:38.506Z,21
2018-12-08T11:39:29.138Z,21.2
2018-12-08T11:40:18.569Z,21.3
2018-12-08T11:41:07.914Z,21.4
2018-12-08T11:41:57.685Z,21.5
2018-12-08T11:42:48.038Z,21.6
2018-12-08T11:43:38.810Z,21.7
2018-12-08T11:44:28.780Z,21.8
2018-12-08T11:45:18.753Z,21.8
2018-12-08T11:46:07.865Z,21.9
2018-12-08T11:46:58.707Z,22
2018-12-08T11:47:48.543Z,22.1
2018-12-08T11:48:37.323Z,22.1
2018-12-08T11:49:28.732Z,22.2
2018-12-08T11:50:18.495Z,22.3
2018-12-08T11:51:09.039Z,22.3
2018-12-08T11:51:58.902Z,22.4
2018-12-08T11:52:48.687Z,22.4
2018-12-08T11:53:38.416Z,22.4
2018-12-08T11:54:28.602Z,21.9
2018-12-08T11:55:19.265Z,21.3
2018-12-08T11:56:08.970Z,20.9
2018-12-08T11:56:59.243Z,20.6
2018-12-08T11:57:49.574Z,20.3
2018-12-08T11:58:39.797Z,20.1
2018-12-08T11:59:30.159Z,19.9
2018-12-08T12:00:19.921Z,19.7
2018-12-08T12:01:10.224Z,19.5
2018-12-08T12:01:59.991Z,19.4
2018-12-08T12:02:49.851Z,19.3
2018-12-08T12:03:39.587Z,19.2
2018-12-08T12:04:30.442Z,19.1
2018-12-08T12:05:19.671Z,18.8
2018-12-08T12:06:10.546Z,18.6
2018-12-08T12:07:00.039Z,18.4
2018-12-08T12:07:49.864Z,18.3
2018-12-08T12:08:39.673Z,18.2
2018-12-08T12:09:30.319Z,18.1
2018-12-08T12:10:20.816Z,17.9
2018-12-08T12:11:10.609Z,17.8